Terminal Aerodrome Forecast
Issued by NWS Charleston, WV

Current Version | Previous Version | Graphics & Text | Print | Product List | Glossary On
Versions: 1 2 3 4 5 6 7 8 9 10 11 12 13 14 15 16 17 18 19 20 21 22 23 24 25 26 27
000
FTUS41 KRLX 190200 AAA
TAFBKW
TAF AMD
KBKW 190241Z 1903/1924 VRB03KT P6SM SCT040
      TEMPO 1904/1908 BKN035
     FM190900 VRB03KT P6SM BKN025
     FM191100 12004KT 6SM BR BKN015
     FM191300 13006KT P6SM -DZ BKN010
     FM191600 13007KT P6SM -DZ BKN015
     FM191800 13007KT P6SM BKN025
     FM192000 13008KT P6SM BKN020=

USA.gov is the U.S. government's official web portal to all federal, state and local government web resources and services.